sensor_id;sensor_type;location;lat;lon;timestamp;P1;durP1;ratioP1;P2;durP2;ratioP2
20982;SDS011;10650;51.528;6.748;2022-12-18T02:37:35;79.60;;;37.63;;
20982;SDS011;10650;51.528;6.748;2022-12-18T02:41:24;78.30;;;40.72;;
20982;SDS011;10650;51.528;6.748;2022-12-18T03:41:17;54.03;;;30.75;;
20982;SDS011;10650;51.528;6.748;2022-12-18T03:43:51;58.33;;;31.80;;
20982;SDS011;10650;51.528;6.748;2022-12-18T03:46:24;56.28;;;30.77;;
20982;SDS011;10650;51.528;6.748;2022-12-18T03:48:58;54.97;;;31.30;;
20982;SDS011;10650;51.528;6.748;2022-12-18T03:51:38;51.50;;;29.38;;
20982;SDS011;10650;51.528;6.748;2022-12-18T03:54:10;53.10;;;30.33;;
20982;SDS011;10650;51.528;6.748;2022-12-18T03:56:42;49.72;;;28.38;;
20982;SDS011;10650;51.528;6.748;2022-12-18T03:59:13;51.92;;;29.88;;
20982;SDS011;10650;51.528;6.748;2022-12-18T04:01:45;45.05;;;25.90;;
20982;SDS011;10650;51.528;6.748;2022-12-18T04:04:15;47.37;;;27.60;;
20982;SDS011;10650;51.528;6.748;2022-12-18T04:06:45;52.50;;;29.63;;
20982;SDS011;10650;51.528;6.748;2022-12-18T04:09:15;46.70;;;27.83;;
20982;SDS011;10650;51.528;6.748;2022-12-18T04:11:45;53.08;;;29.33;;
20982;SDS011;10650;51.528;6.748;2022-12-18T04:14:13;51.70;;;28.98;;
20982;SDS011;10650;51.528;6.748;2022-12-18T04:16:43;45.40;;;26.80;;
20982;SDS011;10650;51.528;6.748;2022-12-18T04:19:11;43.97;;;26.27;;
20982;SDS011;10650;51.528;6.748;2022-12-18T04:21:39;40.88;;;23.95;;
20982;SDS011;10650;51.528;6.748;2022-12-18T04:24:07;37.97;;;23.67;;
20982;SDS011;10650;51.528;6.748;2022-12-18T04:26:35;46.30;;;25.80;;
20982;SDS011;10650;51.528;6.748;2022-12-18T04:29:06;45.60;;;25.58;;
20982;SDS011;10650;51.528;6.748;2022-12-18T04:31:33;44.53;;;26.10;;
20982;SDS011;10650;51.528;6.748;2022-12-18T04:34:01;59.33;;;31.13;;
20982;SDS011;10650;51.528;6.748;2022-12-18T04:36:29;71.90;;;35.88;;
20982;SDS011;10650;51.528;6.748;2022-12-18T04:38:57;86.00;;;43.30;;
20982;SDS011;10650;51.528;6.748;2022-12-18T04:41:27;53.45;;;28.63;;
20982;SDS011;10650;51.528;6.748;2022-12-18T04:43:55;49.63;;;28.60;;
20982;SDS011;10650;51.528;6.748;2022-12-18T04:46:24;51.30;;;28.77;;
20982;SDS011;10650;51.528;6.748;2022-12-18T04:48:53;48.58;;;28.33;;
20982;SDS011;10650;51.528;6.748;2022-12-18T04:51:21;57.60;;;30.85;;
20982;SDS011;10650;51.528;6.748;2022-12-18T04:53:52;45.72;;;26.50;;
20982;SDS011;10650;51.528;6.748;2022-12-18T04:56:20;47.38;;;26.23;;
20982;SDS011;10650;51.528;6.748;2022-12-18T04:58:48;46.75;;;26.20;;
20982;SDS011;10650;51.528;6.748;2022-12-18T05:01:16;49.47;;;28.05;;
20982;SDS011;10650;51.528;6.748;2022-12-18T05:03:47;69.68;;;36.63;;
20982;SDS011;10650;51.528;6.748;2022-12-18T05:06:15;76.30;;;38.72;;
20982;SDS011;10650;51.528;6.748;2022-12-18T05:08:43;62.15;;;32.90;;
20982;SDS011;10650;51.528;6.748;2022-12-18T05:11:12;68.60;;;36.70;;
20982;SDS011;10650;51.528;6.748;2022-12-18T05:13:42;59.90;;;31.60;;
20982;SDS011;10650;51.528;6.748;2022-12-18T05:16:11;71.53;;;34.80;;
20982;SDS011;10650;51.528;6.748;2022-12-18T05:18:39;70.22;;;34.88;;
20982;SDS011;10650;51.528;6.748;2022-12-18T05:21:09;77.30;;;39.20;;
20982;SDS011;10650;51.528;6.748;2022-12-18T05:23:37;74.70;;;39.42;;
20982;SDS011;10650;51.528;6.748;2022-12-18T05:26:06;131.20;;;60.08;;
20982;SDS011;10650;51.528;6.748;2022-12-18T05:28:34;104.35;;;48.33;;
20982;SDS011;10650;51.528;6.748;2022-12-18T05:31:03;77.28;;;37.53;;
20982;SDS011;10650;51.528;6.748;2022-12-18T05:33:32;79.20;;;38.92;;
20982;SDS011;10650;51.528;6.748;2022-12-18T05:36:02;78.68;;;38.35;;
20982;SDS011;10650;51.528;6.748;2022-12-18T05:38:33;70.97;;;37.03;;
20982;SDS011;10650;51.528;6.748;2022-12-18T05:41:03;74.55;;;37.90;;
20982;SDS011;10650;51.528;6.748;2022-12-18T05:43:31;68.43;;;36.47;;
20982;SDS011;10650;51.528;6.748;2022-12-18T05:46:05;63.42;;;33.47;;
20982;SDS011;10650;51.528;6.748;2022-12-18T05:48:34;64.72;;;35.10;;
20982;SDS011;10650;51.528;6.748;2022-12-18T05:51:06;61.83;;;33.20;;
20982;SDS011;10650;51.528;6.748;2022-12-18T05:53:37;63.35;;;31.23;;
20982;SDS011;10650;51.528;6.748;2022-12-18T05:56:07;61.40;;;31.70;;
20982;SDS011;10650;51.528;6.748;2022-12-18T05:58:36;57.70;;;30.50;;
20982;SDS011;10650;51.528;6.748;2022-12-18T06:01:08;62.03;;;32.78;;
20982;SDS011;10650;51.528;6.748;2022-12-18T06:03:39;62.08;;;31.48;;
20982;SDS011;10650;51.528;6.748;2022-12-18T06:06:14;60.58;;;31.27;;
20982;SDS011;10650;51.528;6.748;2022-12-18T06:08:45;54.63;;;30.08;;
20982;SDS011;10650;51.528;6.748;2022-12-18T06:11:15;59.05;;;31.75;;
20982;SDS011;10650;51.528;6.748;2022-12-18T06:13:46;61.55;;;31.88;;
20982;SDS011;10650;51.528;6.748;2022-12-18T06:16:23;55.15;;;30.38;;
20982;SDS011;10650;51.528;6.748;2022-12-18T06:18:51;58.63;;;30.33;;
20982;SDS011;10650;51.528;6.748;2022-12-18T06:21:19;61.03;;;33.17;;
20982;SDS011;10650;51.528;6.748;2022-12-18T06:23:49;60.75;;;31.77;;
20982;SDS011;10650;51.528;6.748;2022-12-18T06:26:16;58.85;;;32.85;;
20982;SDS011;10650;51.528;6.748;2022-12-18T06:28:51;65.55;;;35.15;;
20982;SDS011;10650;51.528;6.748;2022-12-18T06:31:19;59.80;;;32.58;;
20982;SDS011;10650;51.528;6.748;2022-12-18T06:33:47;56.70;;;31.23;;
20982;SDS011;10650;51.528;6.748;2022-12-18T06:36:15;55.17;;;30.50;;
20982;SDS011;10650;51.528;6.748;2022-12-18T06:38:43;59.50;;;32.10;;
20982;SDS011;10650;51.528;6.748;2022-12-18T06:41:13;60.25;;;31.95;;
20982;SDS011;10650;51.528;6.748;2022-12-18T06:43:43;55.50;;;30.58;;
20982;SDS011;10650;51.528;6.748;2022-12-18T06:46:11;56.83;;;30.75;;
20982;SDS011;10650;51.528;6.748;2022-12-18T06:48:40;54.33;;;28.92;;
20982;SDS011;10650;51.528;6.748;2022-12-18T06:51:08;61.20;;;32.25;;
20982;SDS011;10650;51.528;6.748;2022-12-18T06:53:35;53.42;;;27.98;;
20982;SDS011;10650;51.528;6.748;2022-12-18T06:56:05;48.63;;;27.55;;
20982;SDS011;10650;51.528;6.748;2022-12-18T06:58:37;49.80;;;27.33;;
20982;SDS011;10650;51.528;6.748;2022-12-18T07:01:07;51.67;;;28.27;;
20982;SDS011;10650;51.528;6.748;2022-12-18T07:03:36;52.83;;;28.40;;
20982;SDS011;10650;51.528;6.748;2022-12-18T07:06:05;48.83;;;25.65;;
20982;SDS011;10650;51.528;6.748;2022-12-18T07:08:39;48.22;;;26.05;;
20982;SDS011;10650;51.528;6.748;2022-12-18T07:11:07;45.00;;;25.92;;
20982;SDS011;10650;51.528;6.748;2022-12-18T07:13:35;48.47;;;27.67;;
20982;SDS011;10650;51.528;6.748;2022-12-18T07:16:06;45.72;;;26.15;;
20982;SDS011;10650;51.528;6.748;2022-12-18T07:21:14;45.47;;;26.50;;
20982;SDS011;10650;51.528;6.748;2022-12-18T07:23:44;49.67;;;28.27;;
20982;SDS011;10650;51.528;6.748;2022-12-18T07:26:16;47.65;;;26.98;;
20982;SDS011;10650;51.528;6.748;2022-12-18T07:28:46;45.75;;;27.10;;
20982;SDS011;10650;51.528;6.748;2022-12-18T07:31:16;48.92;;;27.02;;
20982;SDS011;10650;51.528;6.748;2022-12-18T07:36:14;43.08;;;24.83;;
20982;SDS011;10650;51.528;6.748;2022-12-18T07:38:42;46.88;;;27.08;;
20982;SDS011;10650;51.528;6.748;2022-12-18T07:41:11;48.05;;;27.52;;
20982;SDS011;10650;51.528;6.748;2022-12-18T07:43:40;46.60;;;26.48;;
20982;SDS011;10650;51.528;6.748;2022-12-18T07:46:10;47.47;;;27.13;;
20982;SDS011;10650;51.528;6.748;2022-12-18T07:48:44;49.30;;;27.35;;
20982;SDS011;10650;51.528;6.748;2022-12-18T07:51:15;44.05;;;26.95;;
20982;SDS011;10650;51.528;6.748;2022-12-18T07:53:44;51.85;;;28.40;;
20982;SDS011;10650;51.528;6.748;2022-12-18T07:56:17;48.85;;;28.55;;
20982;SDS011;10650;51.528;6.748;2022-12-18T07:58:55;56.80;;;32.40;;
20982;SDS011;10650;51.528;6.748;2022-12-18T08:01:24;58.13;;;32.95;;
20982;SDS011;10650;51.528;6.748;2022-12-18T08:03:56;46.25;;;28.52;;
20982;SDS011;10650;51.528;6.748;2022-12-18T08:06:25;53.63;;;31.67;;
20982;SDS011;10650;51.528;6.748;2022-12-18T08:08:53;56.03;;;31.90;;
20982;SDS011;10650;51.528;6.748;2022-12-18T08:11:23;55.17;;;32.40;;
20982;SDS011;10650;51.528;6.748;2022-12-18T08:13:52;48.80;;;28.10;;
20982;SDS011;10650;51.528;6.748;2022-12-18T08:16:21;54.38;;;31.52;;
20982;SDS011;10650;51.528;6.748;2022-12-18T08:18:53;55.13;;;32.17;;
20982;SDS011;10650;51.528;6.748;2022-12-18T08:21:22;54.30;;;31.48;;
20982;SDS011;10650;51.528;6.748;2022-12-18T08:23:53;56.45;;;32.75;;
20982;SDS011;10650;51.528;6.748;2022-12-18T08:26:22;56.58;;;32.80;;
20982;SDS011;10650;51.528;6.748;2022-12-18T08:28:53;46.13;;;29.52;;
20982;SDS011;10650;51.528;6.748;2022-12-18T08:31:22;51.70;;;30.73;;
20982;SDS011;10650;51.528;6.748;2022-12-18T08:33:51;58.75;;;34.63;;
20982;SDS011;10650;51.528;6.748;2022-12-18T08:36:23;54.03;;;32.28;;
20982;SDS011;10650;51.528;6.748;2022-12-18T08:38:52;48.15;;;30.23;;
20982;SDS011;10650;51.528;6.748;2022-12-18T08:41:24;47.58;;;28.95;;
20982;SDS011;10650;51.528;6.748;2022-12-18T08:43:52;51.05;;;30.95;;
20982;SDS011;10650;51.528;6.748;2022-12-18T08:46:37;52.08;;;32.17;;
20982;SDS011;10650;51.528;6.748;2022-12-18T08:49:07;51.20;;;32.63;;
20982;SDS011;10650;51.528;6.748;2022-12-18T08:51:38;54.45;;;34.17;;
20982;SDS011;10650;51.528;6.748;2022-12-18T08:54:06;56.10;;;34.28;;
20982;SDS011;10650;51.528;6.748;2022-12-18T08:56:34;53.67;;;33.42;;
20982;SDS011;10650;51.528;6.748;2022-12-18T08:59:03;55.20;;;33.88;;
20982;SDS011;10650;51.528;6.748;2022-12-18T09:01:32;58.42;;;35.70;;
20982;SDS011;10650;51.528;6.748;2022-12-18T09:04:02;52.88;;;32.05;;
20982;SDS011;10650;51.528;6.748;2022-12-18T09:06:32;57.30;;;34.80;;
20982;SDS011;10650;51.528;6.748;2022-12-18T09:09:06;58.05;;;36.60;;
20982;SDS011;10650;51.528;6.748;2022-12-18T09:11:34;55.75;;;36.35;;
20982;SDS011;10650;51.528;6.748;2022-12-18T09:14:02;59.80;;;37.88;;
20982;SDS011;10650;51.528;6.748;2022-12-18T09:16:30;54.17;;;34.65;;
20982;SDS011;10650;51.528;6.748;2022-12-18T09:19:03;55.42;;;34.28;;
20982;SDS011;10650;51.528;6.748;2022-12-18T09:21:32;59.33;;;35.95;;
20982;SDS011;10650;51.528;6.748;2022-12-18T09:24:04;53.90;;;34.03;;
20982;SDS011;10650;51.528;6.748;2022-12-18T09:30:05;52.53;;;33.58;;
20982;SDS011;10650;51.528;6.748;2022-12-18T09:33:43;56.42;;;36.42;;
20982;SDS011;10650;51.528;6.748;2022-12-18T09:36:47;53.65;;;33.42;;
20982;SDS011;10650;51.528;6.748;2022-12-18T09:43:24;57.67;;;36.67;;
20982;SDS011;10650;51.528;6.748;2022-12-18T09:46:16;66.72;;;41.90;;
20982;SDS011;10650;51.528;6.748;2022-12-18T09:49:14;64.50;;;41.28;;
20982;SDS011;10650;51.528;6.748;2022-12-18T09:52:15;66.63;;;42.70;;
20982;SDS011;10650;51.528;6.748;2022-12-18T09:58:35;73.18;;;51.45;;
20982;SDS011;10650;51.528;6.748;2022-12-18T10:01:10;65.53;;;46.10;;
20982;SDS011;10650;51.528;6.748;2022-12-18T10:04:19;63.55;;;45.08;;
20982;SDS011;10650;51.528;6.748;2022-12-18T10:06:54;59.08;;;41.67;;
20982;SDS011;10650;51.528;6.748;2022-12-18T10:09:44;56.42;;;39.83;;
20982;SDS011;10650;51.528;6.748;2022-12-18T10:12:30;57.63;;;39.10;;
20982;SDS011;10650;51.528;6.748;2022-12-18T10:18:53;62.17;;;42.08;;
20982;SDS011;10650;51.528;6.748;2022-12-18T10:21:37;56.25;;;40.67;;
20982;SDS011;10650;51.528;6.748;2022-12-18T10:27:06;61.80;;;41.85;;
20982;SDS011;10650;51.528;6.748;2022-12-18T10:29:42;59.70;;;40.08;;
20982;SDS011;10650;51.528;6.748;2022-12-18T10:32:14;70.60;;;45.00;;
20982;SDS011;10650;51.528;6.748;2022-12-18T10:34:46;66.50;;;43.67;;
20982;SDS011;10650;51.528;6.748;2022-12-18T10:37:25;58.42;;;41.75;;
20982;SDS011;10650;51.528;6.748;2022-12-18T10:40:07;57.58;;;41.33;;
20982;SDS011;10650;51.528;6.748;2022-12-18T10:42:47;57.00;;;40.28;;
20982;SDS011;10650;51.528;6.748;2022-12-18T10:45:31;59.92;;;41.45;;
20982;SDS011;10650;51.528;6.748;2022-12-18T10:47:59;53.85;;;38.03;;
20982;SDS011;10650;51.528;6.748;2022-12-18T10:50:30;54.30;;;38.92;;
20982;SDS011;10650;51.528;6.748;2022-12-18T10:53:21;52.58;;;36.35;;
20982;SDS011;10650;51.528;6.748;2022-12-18T10:55:52;53.10;;;36.25;;
20982;SDS011;10650;51.528;6.748;2022-12-18T10:58:37;50.00;;;35.40;;
20982;SDS011;10650;51.528;6.748;2022-12-18T11:01:10;52.67;;;34.45;;
20982;SDS011;10650;51.528;6.748;2022-12-18T11:03:59;48.05;;;33.83;;
20982;SDS011;10650;51.528;6.748;2022-12-18T12:25:06;21.88;;;15.88;;
20982;SDS011;10650;51.528;6.748;2022-12-18T12:28:15;20.58;;;11.73;;
20982;SDS011;10650;51.528;6.748;2022-12-18T15:23:25;41.00;;;27.70;;
20982;SDS011;10650;51.528;6.748;2022-12-18T15:25:55;23.38;;;14.60;;
20982;SDS011;10650;51.528;6.748;2022-12-18T15:28:25;22.10;;;14.23;;
20982;SDS011;10650;51.528;6.748;2022-12-18T15:31:02;24.45;;;16.50;;
20982;SDS011;10650;51.528;6.748;2022-12-18T15:33:34;22.52;;;15.48;;
20982;SDS011;10650;51.528;6.748;2022-12-18T15:36:04;22.38;;;15.02;;
20982;SDS011;10650;51.528;6.748;2022-12-18T15:38:37;20.33;;;14.25;;
20982;SDS011;10650;51.528;6.748;2022-12-18T15:41:05;22.00;;;14.82;;
20982;SDS011;10650;51.528;6.748;2022-12-18T15:43:39;45.53;;;26.85;;
20982;SDS011;10650;51.528;6.748;2022-12-18T15:46:08;37.40;;;22.98;;
20982;SDS011;10650;51.528;6.748;2022-12-18T15:48:41;30.25;;;20.40;;
20982;SDS011;10650;51.528;6.748;2022-12-18T15:51:11;23.60;;;15.63;;
20982;SDS011;10650;51.528;6.748;2022-12-18T15:53:43;22.48;;;14.98;;
20982;SDS011;10650;51.528;6.748;2022-12-18T15:56:13;28.25;;;19.25;;
20982;SDS011;10650;51.528;6.748;2022-12-18T15:59:00;38.08;;;25.63;;
20982;SDS011;10650;51.528;6.748;2022-12-18T16:01:30;32.47;;;22.52;;
20982;SDS011;10650;51.528;6.748;2022-12-18T16:04:04;44.80;;;33.05;;
20982;SDS011;10650;51.528;6.748;2022-12-18T16:06:32;26.20;;;19.83;;
20982;SDS011;10650;51.528;6.748;2022-12-18T16:09:22;26.13;;;18.90;;
20982;SDS011;10650;51.528;6.748;2022-12-18T16:11:51;27.30;;;19.85;;
20982;SDS011;10650;51.528;6.748;2022-12-18T16:14:22;34.58;;;23.23;;
20982;SDS011;10650;51.528;6.748;2022-12-18T16:16:53;34.17;;;22.92;;
20982;SDS011;10650;51.528;6.748;2022-12-18T16:19:23;31.50;;;22.33;;
20982;SDS011;10650;51.528;6.748;2022-12-18T16:21:54;65.80;;;42.45;;
20982;SDS011;10650;51.528;6.748;2022-12-18T16:24:29;36.72;;;23.75;;
20982;SDS011;10650;51.528;6.748;2022-12-18T16:27:18;36.85;;;23.50;;
20982;SDS011;10650;51.528;6.748;2022-12-18T16:29:47;33.92;;;22.58;;
20982;SDS011;10650;51.528;6.748;2022-12-18T16:32:16;38.65;;;24.23;;
20982;SDS011;10650;51.528;6.748;2022-12-18T16:34:46;28.65;;;19.58;;
20982;SDS011;10650;51.528;6.748;2022-12-18T16:37:17;29.75;;;19.88;;
20982;SDS011;10650;51.528;6.748;2022-12-18T16:39:47;30.63;;;18.95;;
20982;SDS011;10650;51.528;6.748;2022-12-18T16:42:16;52.63;;;32.30;;
20982;SDS011;10650;51.528;6.748;2022-12-18T16:44:46;53.38;;;32.53;;
20982;SDS011;10650;51.528;6.748;2022-12-18T16:47:33;27.85;;;19.02;;
20982;SDS011;10650;51.528;6.748;2022-12-18T16:50:10;31.70;;;20.00;;
20982;SDS011;10650;51.528;6.748;2022-12-18T16:52:58;32.00;;;20.45;;
20982;SDS011;10650;51.528;6.748;2022-12-18T16:58:47;28.65;;;19.05;;
20982;SDS011;10650;51.528;6.748;2022-12-18T17:01:17;52.17;;;31.70;;
20982;SDS011;10650;51.528;6.748;2022-12-18T17:04:08;33.70;;;21.70;;
20982;SDS011;10650;51.528;6.748;2022-12-18T17:06:52;28.98;;;18.27;;
20982;SDS011;10650;51.528;6.748;2022-12-18T17:10:14;36.63;;;23.25;;
20982;SDS011;10650;51.528;6.748;2022-12-18T17:15:34;31.55;;;20.73;;
20982;SDS011;10650;51.528;6.748;2022-12-18T17:18:09;30.80;;;20.52;;
20982;SDS011;10650;51.528;6.748;2022-12-18T17:21:12;34.08;;;22.98;;
20982;SDS011;10650;51.528;6.748;2022-12-18T17:24:06;39.72;;;25.42;;
20982;SDS011;10650;51.528;6.748;2022-12-18T17:27:22;29.70;;;19.63;;
20982;SDS011;10650;51.528;6.748;2022-12-18T17:29:53;49.70;;;31.80;;
20982;SDS011;10650;51.528;6.748;2022-12-18T17:32:21;82.07;;;49.90;;
20982;SDS011;10650;51.528;6.748;2022-12-18T17:34:51;43.22;;;28.40;;
20982;SDS011;10650;51.528;6.748;2022-12-18T17:37:21;42.10;;;27.45;;
20982;SDS011;10650;51.528;6.748;2022-12-18T17:40:15;39.33;;;26.55;;
20982;SDS011;10650;51.528;6.748;2022-12-18T17:43:18;33.03;;;22.42;;
20982;SDS011;10650;51.528;6.748;2022-12-18T17:46:34;32.95;;;20.60;;
20982;SDS011;10650;51.528;6.748;2022-12-18T17:49:43;43.13;;;26.27;;
20982;SDS011;10650;51.528;6.748;2022-12-18T18:02:59;40.90;;;26.80;;
20982;SDS011;10650;51.528;6.748;2022-12-18T18:05:53;36.97;;;23.17;;
20982;SDS011;10650;51.528;6.748;2022-12-18T18:08:24;36.67;;;23.55;;
20982;SDS011;10650;51.528;6.748;2022-12-18T19:15:09;41.92;;;26.10;;
20982;SDS011;10650;51.528;6.748;2022-12-18T19:21:14;36.70;;;22.38;;
20982;SDS011;10650;51.528;6.748;2022-12-18T19:24:16;37.15;;;23.50;;
20982;SDS011;10650;51.528;6.748;2022-12-18T19:27:33;37.55;;;23.38;;
20982;SDS011;10650;51.528;6.748;2022-12-18T19:34:48;42.38;;;27.63;;
20982;SDS011;10650;51.528;6.748;2022-12-18T19:37:41;39.97;;;25.58;;
20982;SDS011;10650;51.528;6.748;2022-12-18T19:40:51;40.33;;;26.15;;
20982;SDS011;10650;51.528;6.748;2022-12-18T19:43:47;37.50;;;23.05;;
20982;SDS011;10650;51.528;6.748;2022-12-18T19:47:23;40.67;;;23.17;;
20982;SDS011;10650;51.528;6.748;2022-12-18T20:10:43;38.40;;;24.25;;
20982;SDS011;10650;51.528;6.748;2022-12-18T20:17:22;36.22;;;22.65;;
20982;SDS011;10650;51.528;6.748;2022-12-18T20:34:00;35.97;;;21.67;;
20982;SDS011;10650;51.528;6.748;2022-12-18T20:37:07;39.53;;;23.70;;
20982;SDS011;10650;51.528;6.748;2022-12-18T20:42:34;37.78;;;23.17;;
20982;SDS011;10650;51.528;6.748;2022-12-18T20:44:10;41.75;;;24.17;;
20982;SDS011;10650;51.528;6.748;2022-12-18T20:54:51;33.47;;;20.58;;
20982;SDS011;10650;51.528;6.748;2022-12-18T20:58:29;37.65;;;22.88;;
20982;SDS011;10650;51.528;6.748;2022-12-18T21:03:54;37.67;;;23.42;;
20982;SDS011;10650;51.528;6.748;2022-12-18T21:23:14;42.13;;;23.75;;
20982;SDS011;10650;51.528;6.748;2022-12-18T21:45:37;38.25;;;23.50;;
20982;SDS011;10650;51.528;6.748;2022-12-18T21:49:06;38.50;;;23.23;;
20982;SDS011;10650;51.528;6.748;2022-12-18T22:19:33;39.15;;;23.58;;
20982;SDS011;10650;51.528;6.748;2022-12-18T22:39:27;39.35;;;23.52;;
